sensor_id;sensor_type;location;lat;lon;timestamp;P1;durP1;ratioP1;P2;durP2;ratioP2
70026;SDS011;57506;50.092;15.804;2022-08-24T00:02:22;33.40;;;19.73;;
70026;SDS011;57506;50.092;15.804;2022-08-24T00:04:48;40.03;;;20.55;;
70026;SDS011;57506;50.092;15.804;2022-08-24T00:07:15;30.60;;;17.73;;
70026;SDS011;57506;50.092;15.804;2022-08-24T00:09:41;32.72;;;17.88;;
70026;SDS011;57506;50.092;15.804;2022-08-24T00:12:08;33.47;;;18.98;;
70026;SDS011;57506;50.092;15.804;2022-08-24T00:14:34;33.93;;;19.47;;
70026;SDS011;57506;50.092;15.804;2022-08-24T00:17:00;32.58;;;18.60;;
70026;SDS011;57506;50.092;15.804;2022-08-24T00:19:26;29.75;;;17.77;;
70026;SDS011;57506;50.092;15.804;2022-08-24T00:21:53;33.38;;;17.65;;
70026;SDS011;57506;50.092;15.804;2022-08-24T00:24:19;33.53;;;18.63;;
70026;SDS011;57506;50.092;15.804;2022-08-24T00:26:45;29.70;;;18.25;;
70026;SDS011;57506;50.092;15.804;2022-08-24T00:29:12;31.23;;;18.67;;
70026;SDS011;57506;50.092;15.804;2022-08-24T00:31:39;34.65;;;18.55;;
70026;SDS011;57506;50.092;15.804;2022-08-24T00:34:04;37.00;;;19.13;;
70026;SDS011;57506;50.092;15.804;2022-08-24T00:36:30;34.65;;;19.50;;
70026;SDS011;57506;50.092;15.804;2022-08-24T00:38:57;32.83;;;18.55;;
70026;SDS011;57506;50.092;15.804;2022-08-24T00:41:23;35.10;;;19.77;;
70026;SDS011;57506;50.092;15.804;2022-08-24T00:43:52;34.57;;;19.93;;
70026;SDS011;57506;50.092;15.804;2022-08-24T00:46:45;38.25;;;19.55;;
70026;SDS011;57506;50.092;15.804;2022-08-24T00:54:25;36.70;;;20.80;;
70026;SDS011;57506;50.092;15.804;2022-08-24T00:56:56;41.97;;;20.88;;
70026;SDS011;57506;50.092;15.804;2022-08-24T00:59:28;40.20;;;21.92;;
70026;SDS011;57506;50.092;15.804;2022-08-24T01:01:56;40.10;;;19.20;;
70026;SDS011;57506;50.092;15.804;2022-08-24T01:04:27;38.80;;;20.42;;
70026;SDS011;57506;50.092;15.804;2022-08-24T01:07:01;39.13;;;21.53;;
70026;SDS011;57506;50.092;15.804;2022-08-24T01:09:28;39.33;;;20.80;;
70026;SDS011;57506;50.092;15.804;2022-08-24T01:11:53;40.75;;;21.25;;
70026;SDS011;57506;50.092;15.804;2022-08-24T01:14:19;42.97;;;20.57;;
70026;SDS011;57506;50.092;15.804;2022-08-24T01:16:47;42.80;;;21.75;;
70026;SDS011;57506;50.092;15.804;2022-08-24T01:19:33;45.03;;;23.27;;
70026;SDS011;57506;50.092;15.804;2022-08-24T01:24:31;46.00;;;22.30;;
70026;SDS011;57506;50.092;15.804;2022-08-24T01:26:59;46.83;;;23.90;;
70026;SDS011;57506;50.092;15.804;2022-08-24T01:29:27;51.38;;;23.17;;
70026;SDS011;57506;50.092;15.804;2022-08-24T01:31:55;52.38;;;24.15;;
70026;SDS011;57506;50.092;15.804;2022-08-24T01:34:22;48.40;;;23.23;;
70026;SDS011;57506;50.092;15.804;2022-08-24T01:36:55;52.03;;;22.30;;
70026;SDS011;57506;50.092;15.804;2022-08-24T01:41:47;52.60;;;23.10;;
70026;SDS011;57506;50.092;15.804;2022-08-24T01:44:13;51.40;;;22.20;;
70026;SDS011;57506;50.092;15.804;2022-08-24T01:46:48;47.78;;;23.60;;
70026;SDS011;57506;50.092;15.804;2022-08-24T01:49:17;47.38;;;21.30;;
70026;SDS011;57506;50.092;15.804;2022-08-24T01:51:44;48.05;;;22.50;;
70026;SDS011;57506;50.092;15.804;2022-08-24T01:54:10;56.13;;;23.07;;
70026;SDS011;57506;50.092;15.804;2022-08-24T01:56:37;53.00;;;23.15;;
70026;SDS011;57506;50.092;15.804;2022-08-24T01:59:03;53.47;;;24.70;;
70026;SDS011;57506;50.092;15.804;2022-08-24T02:01:31;56.25;;;24.35;;
70026;SDS011;57506;50.092;15.804;2022-08-24T02:04:03;54.95;;;24.17;;
70026;SDS011;57506;50.092;15.804;2022-08-24T02:06:30;55.00;;;25.10;;
70026;SDS011;57506;50.092;15.804;2022-08-24T02:08:57;56.75;;;24.98;;
70026;SDS011;57506;50.092;15.804;2022-08-24T02:11:22;59.20;;;26.25;;
70026;SDS011;57506;50.092;15.804;2022-08-24T02:13:48;59.33;;;26.40;;
70026;SDS011;57506;50.092;15.804;2022-08-24T02:16:14;56.85;;;25.83;;
70026;SDS011;57506;50.092;15.804;2022-08-24T02:18:39;56.07;;;25.00;;
70026;SDS011;57506;50.092;15.804;2022-08-24T02:21:08;55.90;;;26.07;;
70026;SDS011;57506;50.092;15.804;2022-08-24T02:23:35;57.83;;;24.98;;
70026;SDS011;57506;50.092;15.804;2022-08-24T02:26:02;59.22;;;25.48;;
70026;SDS011;57506;50.092;15.804;2022-08-24T02:28:29;70.68;;;27.17;;
70026;SDS011;57506;50.092;15.804;2022-08-24T02:30:54;76.50;;;29.27;;
70026;SDS011;57506;50.092;15.804;2022-08-24T02:33:20;72.43;;;26.88;;
70026;SDS011;57506;50.092;15.804;2022-08-24T02:35:47;80.00;;;27.33;;
70026;SDS011;57506;50.092;15.804;2022-08-24T02:38:14;85.15;;;26.90;;
70026;SDS011;57506;50.092;15.804;2022-08-24T02:40:39;75.97;;;27.67;;
70026;SDS011;57506;50.092;15.804;2022-08-24T02:43:05;75.67;;;27.80;;
70026;SDS011;57506;50.092;15.804;2022-08-24T02:45:31;94.77;;;26.40;;
70026;SDS011;57506;50.092;15.804;2022-08-24T02:48:01;69.65;;;25.63;;
70026;SDS011;57506;50.092;15.804;2022-08-24T02:50:27;64.38;;;25.60;;
70026;SDS011;57506;50.092;15.804;2022-08-24T02:52:52;70.97;;;25.90;;
70026;SDS011;57506;50.092;15.804;2022-08-24T02:55:18;100.97;;;26.30;;
70026;SDS011;57506;50.092;15.804;2022-08-24T02:57:44;211.43;;;27.43;;
70026;SDS011;57506;50.092;15.804;2022-08-24T03:00:12;158.38;;;27.90;;
70026;SDS011;57506;50.092;15.804;2022-08-24T03:02:39;73.05;;;25.83;;
70026;SDS011;57506;50.092;15.804;2022-08-24T03:05:05;136.10;;;29.43;;
70026;SDS011;57506;50.092;15.804;2022-08-24T03:07:32;176.25;;;29.17;;
70026;SDS011;57506;50.092;15.804;2022-08-24T03:09:57;108.63;;;28.43;;
70026;SDS011;57506;50.092;15.804;2022-08-24T03:12:23;94.93;;;26.30;;
70026;SDS011;57506;50.092;15.804;2022-08-24T03:14:48;97.13;;;27.63;;
70026;SDS011;57506;50.092;15.804;2022-08-24T03:17:14;98.63;;;27.10;;
70026;SDS011;57506;50.092;15.804;2022-08-24T03:19:39;130.02;;;27.15;;
70026;SDS011;57506;50.092;15.804;2022-08-24T03:22:06;111.67;;;27.03;;
70026;SDS011;57506;50.092;15.804;2022-08-24T03:24:32;80.47;;;25.08;;
70026;SDS011;57506;50.092;15.804;2022-08-24T03:26:57;71.20;;;22.63;;
70026;SDS011;57506;50.092;15.804;2022-08-24T03:29:23;53.80;;;21.60;;
70026;SDS011;57506;50.092;15.804;2022-08-24T03:31:48;96.03;;;22.37;;
70026;SDS011;57506;50.092;15.804;2022-08-24T03:34:14;65.63;;;22.02;;
70026;SDS011;57506;50.092;15.804;2022-08-24T03:36:41;50.57;;;21.33;;
70026;SDS011;57506;50.092;15.804;2022-08-24T03:39:11;123.55;;;22.95;;
70026;SDS011;57506;50.092;15.804;2022-08-24T03:41:37;63.15;;;21.35;;
70026;SDS011;57506;50.092;15.804;2022-08-24T03:44:03;140.10;;;22.37;;
70026;SDS011;57506;50.092;15.804;2022-08-24T03:46:32;77.20;;;20.98;;
70026;SDS011;57506;50.092;15.804;2022-08-24T03:49:01;142.13;;;22.35;;
70026;SDS011;57506;50.092;15.804;2022-08-24T03:51:28;144.85;;;20.48;;
70026;SDS011;57506;50.092;15.804;2022-08-24T03:53:55;71.57;;;22.48;;
70026;SDS011;57506;50.092;15.804;2022-08-24T03:56:21;135.33;;;21.73;;
70026;SDS011;57506;50.092;15.804;2022-08-24T03:58:47;97.40;;;22.48;;
70026;SDS011;57506;50.092;15.804;2022-08-24T04:01:13;82.90;;;22.88;;
70026;SDS011;57506;50.092;15.804;2022-08-24T04:03:41;52.70;;;19.07;;
70026;SDS011;57506;50.092;15.804;2022-08-24T04:06:08;65.45;;;20.50;;
70026;SDS011;57506;50.092;15.804;2022-08-24T04:08:35;106.38;;;20.98;;
70026;SDS011;57506;50.092;15.804;2022-08-24T04:11:02;63.33;;;18.42;;
70026;SDS011;57506;50.092;15.804;2022-08-24T04:13:28;101.30;;;18.15;;
70026;SDS011;57506;50.092;15.804;2022-08-24T04:15:57;138.60;;;17.73;;
70026;SDS011;57506;50.092;15.804;2022-08-24T04:18:29;106.03;;;17.90;;
70026;SDS011;57506;50.092;15.804;2022-08-24T04:20:55;86.72;;;17.45;;
70026;SDS011;57506;50.092;15.804;2022-08-24T04:23:20;108.00;;;18.07;;
70026;SDS011;57506;50.092;15.804;2022-08-24T04:25:46;131.17;;;19.13;;
70026;SDS011;57506;50.092;15.804;2022-08-24T04:28:14;131.02;;;18.85;;
70026;SDS011;57506;50.092;15.804;2022-08-24T04:30:44;132.43;;;19.88;;
70026;SDS011;57506;50.092;15.804;2022-08-24T04:33:15;133.57;;;19.75;;
70026;SDS011;57506;50.092;15.804;2022-08-24T04:35:42;165.43;;;21.33;;
70026;SDS011;57506;50.092;15.804;2022-08-24T04:38:12;233.83;;;24.07;;
70026;SDS011;57506;50.092;15.804;2022-08-24T04:40:40;244.88;;;25.42;;
70026;SDS011;57506;50.092;15.804;2022-08-24T04:43:08;199.55;;;25.02;;
70026;SDS011;57506;50.092;15.804;2022-08-24T04:45:38;99.88;;;22.67;;
70026;SDS011;57506;50.092;15.804;2022-08-24T04:48:05;60.17;;;20.85;;
70026;SDS011;57506;50.092;15.804;2022-08-24T04:50:35;205.60;;;25.07;;
70026;SDS011;57506;50.092;15.804;2022-08-24T04:53:02;277.52;;;28.05;;
70026;SDS011;57506;50.092;15.804;2022-08-24T04:55:28;144.73;;;24.58;;
70026;SDS011;57506;50.092;15.804;2022-08-24T04:57:54;110.80;;;26.50;;
70026;SDS011;57506;50.092;15.804;2022-08-24T05:00:20;142.73;;;26.92;;
70026;SDS011;57506;50.092;15.804;2022-08-24T05:02:45;185.63;;;30.03;;
70026;SDS011;57506;50.092;15.804;2022-08-24T05:05:11;147.82;;;29.20;;
70026;SDS011;57506;50.092;15.804;2022-08-24T05:07:36;111.37;;;26.20;;
70026;SDS011;57506;50.092;15.804;2022-08-24T05:10:05;184.45;;;30.75;;
70026;SDS011;57506;50.092;15.804;2022-08-24T05:12:32;207.03;;;32.63;;
70026;SDS011;57506;50.092;15.804;2022-08-24T05:14:58;212.23;;;35.35;;
70026;SDS011;57506;50.092;15.804;2022-08-24T05:17:24;156.13;;;33.47;;
70026;SDS011;57506;50.092;15.804;2022-08-24T05:19:52;144.67;;;35.70;;
70026;SDS011;57506;50.092;15.804;2022-08-24T05:22:18;154.50;;;35.78;;
70026;SDS011;57506;50.092;15.804;2022-08-24T05:24:45;179.73;;;36.50;;
70026;SDS011;57506;50.092;15.804;2022-08-24T05:27:14;198.87;;;35.77;;
70026;SDS011;57506;50.092;15.804;2022-08-24T05:29:40;197.40;;;34.38;;
70026;SDS011;57506;50.092;15.804;2022-08-24T05:32:05;193.30;;;36.05;;
70026;SDS011;57506;50.092;15.804;2022-08-24T05:34:31;214.30;;;38.63;;
70026;SDS011;57506;50.092;15.804;2022-08-24T05:36:56;215.93;;;39.13;;
70026;SDS011;57506;50.092;15.804;2022-08-24T05:39:22;201.20;;;38.60;;
70026;SDS011;57506;50.092;15.804;2022-08-24T05:41:47;160.87;;;39.27;;
70026;SDS011;57506;50.092;15.804;2022-08-24T05:44:15;136.30;;;38.08;;
70026;SDS011;57506;50.092;15.804;2022-08-24T05:46:42;106.17;;;35.03;;
70026;SDS011;57506;50.092;15.804;2022-08-24T05:49:10;88.60;;;31.90;;
70026;SDS011;57506;50.092;15.804;2022-08-24T05:51:37;74.97;;;29.70;;
70026;SDS011;57506;50.092;15.804;2022-08-24T05:54:03;79.68;;;30.02;;
70026;SDS011;57506;50.092;15.804;2022-08-24T05:56:29;80.28;;;30.52;;
70026;SDS011;57506;50.092;15.804;2022-08-24T05:58:54;80.93;;;30.50;;
70026;SDS011;57506;50.092;15.804;2022-08-24T06:01:21;81.23;;;31.00;;
70026;SDS011;57506;50.092;15.804;2022-08-24T06:03:49;66.43;;;29.02;;
70026;SDS011;57506;50.092;15.804;2022-08-24T06:06:16;68.30;;;27.42;;
70026;SDS011;57506;50.092;15.804;2022-08-24T06:08:46;62.78;;;27.45;;
70026;SDS011;57506;50.092;15.804;2022-08-24T06:13:53;53.97;;;25.00;;
70026;SDS011;57506;50.092;15.804;2022-08-24T06:16:21;62.13;;;26.13;;
70026;SDS011;57506;50.092;15.804;2022-08-24T06:18:48;47.45;;;24.17;;
70026;SDS011;57506;50.092;15.804;2022-08-24T06:21:15;45.25;;;23.48;;
70026;SDS011;57506;50.092;15.804;2022-08-24T06:23:43;41.47;;;22.25;;
70026;SDS011;57506;50.092;15.804;2022-08-24T06:26:10;40.47;;;22.50;;
70026;SDS011;57506;50.092;15.804;2022-08-24T06:28:55;44.40;;;23.30;;
70026;SDS011;57506;50.092;15.804;2022-08-24T06:31:22;43.20;;;23.10;;
70026;SDS011;57506;50.092;15.804;2022-08-24T06:33:50;46.70;;;24.42;;
70026;SDS011;57506;50.092;15.804;2022-08-24T06:36:16;49.90;;;23.23;;
70026;SDS011;57506;50.092;15.804;2022-08-24T06:38:41;47.50;;;23.97;;
70026;SDS011;57506;50.092;15.804;2022-08-24T06:41:08;46.70;;;25.08;;
70026;SDS011;57506;50.092;15.804;2022-08-24T06:43:34;44.85;;;23.77;;
70026;SDS011;57506;50.092;15.804;2022-08-24T06:46:00;43.42;;;22.65;;
70026;SDS011;57506;50.092;15.804;2022-08-24T06:48:26;42.70;;;23.87;;
70026;SDS011;57506;50.092;15.804;2022-08-24T06:50:52;37.53;;;20.63;;
70026;SDS011;57506;50.092;15.804;2022-08-24T06:53:18;41.97;;;22.33;;
70026;SDS011;57506;50.092;15.804;2022-08-24T06:55:55;38.10;;;22.43;;
70026;SDS011;57506;50.092;15.804;2022-08-24T06:58:22;34.17;;;20.73;;
70026;SDS011;57506;50.092;15.804;2022-08-24T07:00:49;35.10;;;19.98;;
70026;SDS011;57506;50.092;15.804;2022-08-24T07:03:15;33.15;;;19.20;;
70026;SDS011;57506;50.092;15.804;2022-08-24T07:05:55;33.90;;;18.00;;
70026;SDS011;57506;50.092;15.804;2022-08-24T07:08:22;33.40;;;18.45;;
70026;SDS011;57506;50.092;15.804;2022-08-24T07:10:48;31.30;;;18.35;;
70026;SDS011;57506;50.092;15.804;2022-08-24T07:13:14;31.25;;;17.92;;
70026;SDS011;57506;50.092;15.804;2022-08-24T07:15:40;30.23;;;18.63;;
70026;SDS011;57506;50.092;15.804;2022-08-24T07:18:07;30.02;;;18.48;;
70026;SDS011;57506;50.092;15.804;2022-08-24T07:20:35;29.17;;;18.98;;
70026;SDS011;57506;50.092;15.804;2022-08-24T07:23:03;28.60;;;17.20;;
70026;SDS011;57506;50.092;15.804;2022-08-24T07:25:29;35.87;;;19.30;;
70026;SDS011;57506;50.092;15.804;2022-08-24T07:27:56;28.27;;;17.02;;
70026;SDS011;57506;50.092;15.804;2022-08-24T07:30:22;27.70;;;16.77;;
70026;SDS011;57506;50.092;15.804;2022-08-24T07:32:48;27.57;;;16.00;;
70026;SDS011;57506;50.092;15.804;2022-08-24T07:35:13;28.23;;;17.27;;
70026;SDS011;57506;50.092;15.804;2022-08-24T07:37:39;25.80;;;17.07;;
70026;SDS011;57506;50.092;15.804;2022-08-24T07:40:05;25.80;;;16.67;;
70026;SDS011;57506;50.092;15.804;2022-08-24T07:42:31;25.03;;;16.27;;
70026;SDS011;57506;50.092;15.804;2022-08-24T07:44:56;22.25;;;15.68;;
70026;SDS011;57506;50.092;15.804;2022-08-24T07:47:22;24.33;;;14.63;;
70026;SDS011;57506;50.092;15.804;2022-08-24T07:49:47;23.80;;;15.20;;
70026;SDS011;57506;50.092;15.804;2022-08-24T07:52:13;22.80;;;15.50;;
70026;SDS011;57506;50.092;15.804;2022-08-24T07:54:39;21.98;;;15.00;;
70026;SDS011;57506;50.092;15.804;2022-08-24T07:57:05;22.67;;;15.07;;
70026;SDS011;57506;50.092;15.804;2022-08-24T07:59:31;21.10;;;14.20;;
70026;SDS011;57506;50.092;15.804;2022-08-24T08:01:57;20.95;;;14.98;;
70026;SDS011;57506;50.092;15.804;2022-08-24T08:04:23;23.87;;;14.97;;
70026;SDS011;57506;50.092;15.804;2022-08-24T08:06:50;22.15;;;13.88;;
70026;SDS011;57506;50.092;15.804;2022-08-24T08:09:16;19.65;;;14.43;;
70026;SDS011;57506;50.092;15.804;2022-08-24T08:11:42;21.30;;;13.87;;
70026;SDS011;57506;50.092;15.804;2022-08-24T08:14:09;20.75;;;14.35;;
70026;SDS011;57506;50.092;15.804;2022-08-24T08:16:35;19.95;;;14.07;;
70026;SDS011;57506;50.092;15.804;2022-08-24T08:19:03;19.63;;;13.82;;
70026;SDS011;57506;50.092;15.804;2022-08-24T08:21:29;20.50;;;12.73;;
70026;SDS011;57506;50.092;15.804;2022-08-24T08:24:14;20.25;;;13.63;;
70026;SDS011;57506;50.092;15.804;2022-08-24T08:26:40;20.08;;;13.95;;
70026;SDS011;57506;50.092;15.804;2022-08-24T08:29:06;20.42;;;12.82;;
70026;SDS011;57506;50.092;15.804;2022-08-24T08:31:34;22.27;;;13.20;;
70026;SDS011;57506;50.092;15.804;2022-08-24T08:34:02;19.60;;;12.85;;
70026;SDS011;57506;50.092;15.804;2022-08-24T08:36:28;19.17;;;13.38;;
70026;SDS011;57506;50.092;15.804;2022-08-24T08:38:54;21.60;;;13.00;;
70026;SDS011;57506;50.092;15.804;2022-08-24T08:47:18;18.42;;;11.95;;
70026;SDS011;57506;50.092;15.804;2022-08-24T08:50:15;17.58;;;11.00;;
70026;SDS011;57506;50.092;15.804;2022-08-24T08:55:32;16.45;;;11.38;;
70026;SDS011;57506;50.092;15.804;2022-08-24T08:58:13;18.20;;;11.77;;
70026;SDS011;57506;50.092;15.804;2022-08-24T09:00:47;16.77;;;11.05;;
70026;SDS011;57506;50.092;15.804;2022-08-24T09:06:31;16.08;;;11.23;;
70026;SDS011;57506;50.092;15.804;2022-08-24T09:11:55;18.03;;;11.40;;
70026;SDS011;57506;50.092;15.804;2022-08-24T09:17:13;19.58;;;11.57;;
70026;SDS011;57506;50.092;15.804;2022-08-24T09:22:29;14.27;;;10.38;;
70026;SDS011;57506;50.092;15.804;2022-08-24T09:28:20;17.10;;;10.40;;
70026;SDS011;57506;50.092;15.804;2022-08-24T09:36:51;14.52;;;11.02;;
70026;SDS011;57506;50.092;15.804;2022-08-24T09:39:43;16.43;;;10.33;;
70026;SDS011;57506;50.092;15.804;2022-08-24T09:56:22;15.77;;;11.55;;
70026;SDS011;57506;50.092;15.804;2022-08-24T10:15:42;13.37;;;9.43;;
70026;SDS011;57506;50.092;15.804;2022-08-24T10:21:12;17.17;;;10.20;;
70026;SDS011;57506;50.092;15.804;2022-08-24T10:26:52;15.20;;;9.82;;
70026;SDS011;57506;50.092;15.804;2022-08-24T10:30:02;13.33;;;9.30;;
70026;SDS011;57506;50.092;15.804;2022-08-24T10:35:54;15.93;;;10.13;;
70026;SDS011;57506;50.092;15.804;2022-08-24T10:38:53;12.50;;;9.20;;
70026;SDS011;57506;50.092;15.804;2022-08-24T10:47:11;12.40;;;9.60;;
70026;SDS011;57506;50.092;15.804;2022-08-24T10:50:07;15.48;;;9.38;;
70026;SDS011;57506;50.092;15.804;2022-08-24T10:53:13;12.50;;;8.65;;
70026;SDS011;57506;50.092;15.804;2022-08-24T11:01:39;13.52;;;8.68;;
70026;SDS011;57506;50.092;15.804;2022-08-24T11:04:34;13.30;;;8.95;;
70026;SDS011;57506;50.092;15.804;2022-08-24T11:07:17;11.60;;;8.40;;
70026;SDS011;57506;50.092;15.804;2022-08-24T11:09:54;15.35;;;8.65;;
70026;SDS011;57506;50.092;15.804;2022-08-24T11:12:39;13.50;;;8.57;;
70026;SDS011;57506;50.092;15.804;2022-08-24T11:17:56;14.27;;;8.27;;
70026;SDS011;57506;50.092;15.804;2022-08-24T11:20:29;12.85;;;8.55;;
70026;SDS011;57506;50.092;15.804;2022-08-24T11:25:32;12.17;;;8.10;;
70026;SDS011;57506;50.092;15.804;2022-08-24T11:28:18;12.77;;;8.07;;
70026;SDS011;57506;50.092;15.804;2022-08-24T11:30:47;13.35;;;8.02;;
70026;SDS011;57506;50.092;15.804;2022-08-24T11:35:55;14.15;;;8.63;;
70026;SDS011;57506;50.092;15.804;2022-08-24T11:38:31;15.10;;;7.87;;
70026;SDS011;57506;50.092;15.804;2022-08-24T11:41:20;12.73;;;8.70;;
70026;SDS011;57506;50.092;15.804;2022-08-24T11:52:10;11.87;;;7.97;;
70026;SDS011;57506;50.092;15.804;2022-08-24T11:57:51;11.85;;;8.23;;
70026;SDS011;57506;50.092;15.804;2022-08-24T12:00:57;11.20;;;8.23;;
70026;SDS011;57506;50.092;15.804;2022-08-24T12:04:33;11.98;;;7.90;;
70026;SDS011;57506;50.092;15.804;2022-08-24T12:07:02;11.33;;;7.70;;
70026;SDS011;57506;50.092;15.804;2022-08-24T12:12:19;11.02;;;7.60;;
70026;SDS011;57506;50.092;15.804;2022-08-24T12:20:28;14.47;;;6.93;;
70026;SDS011;57506;50.092;15.804;2022-08-24T12:23:02;12.00;;;7.30;;
70026;SDS011;57506;50.092;15.804;2022-08-24T12:25:33;11.38;;;7.10;;
70026;SDS011;57506;50.092;15.804;2022-08-24T12:28:20;12.45;;;6.80;;
70026;SDS011;57506;50.092;15.804;2022-08-24T12:30:50;11.75;;;7.10;;
70026;SDS011;57506;50.092;15.804;2022-08-24T12:33:19;8.97;;;6.50;;
70026;SDS011;57506;50.092;15.804;2022-08-24T12:35:52;9.80;;;6.95;;
70026;SDS011;57506;50.092;15.804;2022-08-24T12:38:42;12.32;;;7.18;;
70026;SDS011;57506;50.092;15.804;2022-08-24T12:41:19;11.23;;;6.80;;
70026;SDS011;57506;50.092;15.804;2022-08-24T12:43:58;9.27;;;6.35;;
70026;SDS011;57506;50.092;15.804;2022-08-24T12:46:31;10.60;;;6.50;;
70026;SDS011;57506;50.092;15.804;2022-08-24T12:59:47;12.93;;;7.40;;
70026;SDS011;57506;50.092;15.804;2022-08-24T13:17:54;11.40;;;6.63;;
70026;SDS011;57506;50.092;15.804;2022-08-24T13:20:27;12.13;;;7.13;;
70026;SDS011;57506;50.092;15.804;2022-08-24T13:33:35;10.70;;;6.80;;
70026;SDS011;57506;50.092;15.804;2022-08-24T13:46:23;10.32;;;7.05;;
70026;SDS011;57506;50.092;15.804;2022-08-24T14:10:51;10.10;;;7.07;;
70026;SDS011;57506;50.092;15.804;2022-08-24T14:16:28;9.85;;;6.40;;
70026;SDS011;57506;50.092;15.804;2022-08-24T14:25:00;10.75;;;6.65;;
70026;SDS011;57506;50.092;15.804;2022-08-24T14:27:45;10.40;;;6.33;;
70026;SDS011;57506;50.092;15.804;2022-08-24T14:35:33;14.25;;;6.60;;
70026;SDS011;57506;50.092;15.804;2022-08-24T14:38:07;11.07;;;6.40;;
70026;SDS011;57506;50.092;15.804;2022-08-24T14:55:03;11.65;;;6.90;;
70026;SDS011;57506;50.092;15.804;2022-08-24T14:58:31;12.20;;;6.63;;
70026;SDS011;57506;50.092;15.804;2022-08-24T15:03:38;16.40;;;5.77;;
70026;SDS011;57506;50.092;15.804;2022-08-24T15:06:47;10.15;;;5.88;;
70026;SDS011;57506;50.092;15.804;2022-08-24T15:11:46;12.48;;;6.05;;
70026;SDS011;57506;50.092;15.804;2022-08-24T15:17:01;13.13;;;6.30;;
70026;SDS011;57506;50.092;15.804;2022-08-24T15:19:42;10.60;;;5.93;;
70026;SDS011;57506;50.092;15.804;2022-08-24T15:22:23;10.75;;;6.00;;
70026;SDS011;57506;50.092;15.804;2022-08-24T15:27:41;10.93;;;6.00;;
70026;SDS011;57506;50.092;15.804;2022-08-24T15:30:16;10.10;;;6.10;;
70026;SDS011;57506;50.092;15.804;2022-08-24T15:32:47;9.77;;;6.38;;
70026;SDS011;57506;50.092;15.804;2022-08-24T15:35:28;9.15;;;6.25;;
70026;SDS011;57506;50.092;15.804;2022-08-24T15:37:56;14.90;;;6.80;;
70026;SDS011;57506;50.092;15.804;2022-08-24T15:40:40;12.90;;;6.75;;
70026;SDS011;57506;50.092;15.804;2022-08-24T15:43:07;13.60;;;7.07;;
70026;SDS011;57506;50.092;15.804;2022-08-24T15:45:34;11.60;;;6.63;;
70026;SDS011;57506;50.092;15.804;2022-08-24T15:48:06;11.57;;;7.20;;
70026;SDS011;57506;50.092;15.804;2022-08-24T15:50:43;9.30;;;6.03;;
70026;SDS011;57506;50.092;15.804;2022-08-24T15:53:24;10.68;;;6.63;;
70026;SDS011;57506;50.092;15.804;2022-08-24T15:55:52;11.60;;;6.53;;
70026;SDS011;57506;50.092;15.804;2022-08-24T15:58:37;10.55;;;6.97;;
70026;SDS011;57506;50.092;15.804;2022-08-24T16:04:07;10.63;;;7.05;;
70026;SDS011;57506;50.092;15.804;2022-08-24T16:06:45;11.75;;;7.32;;
70026;SDS011;57506;50.092;15.804;2022-08-24T16:14:34;18.38;;;7.30;;
70026;SDS011;57506;50.092;15.804;2022-08-24T16:17:21;13.95;;;7.82;;
70026;SDS011;57506;50.092;15.804;2022-08-24T16:19:52;11.57;;;7.20;;
70026;SDS011;57506;50.092;15.804;2022-08-24T16:22:31;11.83;;;7.27;;
70026;SDS011;57506;50.092;15.804;2022-08-24T16:25:10;12.93;;;7.55;;
70026;SDS011;57506;50.092;15.804;2022-08-24T16:27:55;12.48;;;7.40;;
70026;SDS011;57506;50.092;15.804;2022-08-24T16:30:23;18.17;;;7.65;;
70026;SDS011;57506;50.092;15.804;2022-08-24T16:32:59;15.00;;;7.18;;
70026;SDS011;57506;50.092;15.804;2022-08-24T16:35:25;14.10;;;7.20;;
70026;SDS011;57506;50.092;15.804;2022-08-24T16:37:51;13.32;;;7.25;;
70026;SDS011;57506;50.092;15.804;2022-08-24T16:40:18;16.33;;;7.90;;
70026;SDS011;57506;50.092;15.804;2022-08-24T16:42:44;12.47;;;7.67;;
70026;SDS011;57506;50.092;15.804;2022-08-24T16:45:12;13.85;;;7.63;;
70026;SDS011;57506;50.092;15.804;2022-08-24T16:47:42;10.77;;;8.25;;
70026;SDS011;57506;50.092;15.804;2022-08-24T16:50:09;17.58;;;8.30;;
70026;SDS011;57506;50.092;15.804;2022-08-24T16:52:35;16.00;;;7.37;;
70026;SDS011;57506;50.092;15.804;2022-08-24T16:55:00;16.70;;;8.65;;
70026;SDS011;57506;50.092;15.804;2022-08-24T16:57:28;14.60;;;8.30;;
70026;SDS011;57506;50.092;15.804;2022-08-24T16:59:55;11.85;;;8.75;;
70026;SDS011;57506;50.092;15.804;2022-08-24T17:02:21;13.05;;;8.93;;
70026;SDS011;57506;50.092;15.804;2022-08-24T17:04:49;14.13;;;9.00;;
70026;SDS011;57506;50.092;15.804;2022-08-24T17:07:18;14.10;;;8.80;;
70026;SDS011;57506;50.092;15.804;2022-08-24T17:09:46;11.43;;;8.10;;
70026;SDS011;57506;50.092;15.804;2022-08-24T17:12:13;14.95;;;7.93;;
70026;SDS011;57506;50.092;15.804;2022-08-24T17:14:39;14.70;;;8.90;;
70026;SDS011;57506;50.092;15.804;2022-08-24T17:17:05;14.30;;;9.17;;
70026;SDS011;57506;50.092;15.804;2022-08-24T17:19:34;16.45;;;8.93;;
70026;SDS011;57506;50.092;15.804;2022-08-24T17:22:00;13.95;;;9.13;;
70026;SDS011;57506;50.092;15.804;2022-08-24T17:24:26;18.67;;;9.10;;
70026;SDS011;57506;50.092;15.804;2022-08-24T17:26:52;12.83;;;8.53;;
70026;SDS011;57506;50.092;15.804;2022-08-24T17:29:18;14.73;;;8.95;;
70026;SDS011;57506;50.092;15.804;2022-08-24T17:31:45;16.95;;;8.70;;
70026;SDS011;57506;50.092;15.804;2022-08-24T17:34:13;13.65;;;8.25;;
70026;SDS011;57506;50.092;15.804;2022-08-24T17:36:39;14.70;;;8.90;;
70026;SDS011;57506;50.092;15.804;2022-08-24T17:39:08;13.68;;;8.90;;
70026;SDS011;57506;50.092;15.804;2022-08-24T17:41:35;12.20;;;9.25;;
70026;SDS011;57506;50.092;15.804;2022-08-24T17:44:01;13.35;;;8.23;;
70026;SDS011;57506;50.092;15.804;2022-08-24T17:46:27;14.93;;;9.03;;
70026;SDS011;57506;50.092;15.804;2022-08-24T17:48:55;16.73;;;9.57;;
70026;SDS011;57506;50.092;15.804;2022-08-24T17:51:21;16.67;;;9.32;;
70026;SDS011;57506;50.092;15.804;2022-08-24T17:53:47;13.57;;;8.93;;
70026;SDS011;57506;50.092;15.804;2022-08-24T17:56:13;11.83;;;9.40;;
70026;SDS011;57506;50.092;15.804;2022-08-24T17:58:41;16.35;;;9.27;;
70026;SDS011;57506;50.092;15.804;2022-08-24T18:01:26;15.20;;;9.63;;
70026;SDS011;57506;50.092;15.804;2022-08-24T18:03:53;15.52;;;9.75;;
70026;SDS011;57506;50.092;15.804;2022-08-24T18:06:19;14.20;;;9.77;;
70026;SDS011;57506;50.092;15.804;2022-08-24T18:08:47;13.57;;;9.70;;
70026;SDS011;57506;50.092;15.804;2022-08-24T18:11:14;15.88;;;9.10;;
70026;SDS011;57506;50.092;15.804;2022-08-24T18:13:40;17.10;;;9.52;;
70026;SDS011;57506;50.092;15.804;2022-08-24T18:16:08;14.43;;;9.30;;
70026;SDS011;57506;50.092;15.804;2022-08-24T18:18:39;13.00;;;9.05;;
70026;SDS011;57506;50.092;15.804;2022-08-24T18:21:05;16.58;;;9.35;;
70026;SDS011;57506;50.092;15.804;2022-08-24T18:23:31;14.40;;;9.10;;
70026;SDS011;57506;50.092;15.804;2022-08-24T18:25:56;14.10;;;9.52;;
70026;SDS011;57506;50.092;15.804;2022-08-24T18:28:22;14.50;;;9.40;;